createdAt,value
2022-12-08T00:03:54.568Z,15.73
2022-12-08T00:09:14.649Z,12.70
2022-12-08T00:14:16.025Z,13.60
2022-12-08T00:19:17.450Z,14.15
2022-12-08T00:24:19.098Z,14.32
2022-12-08T00:29:20.419Z,16.27
2022-12-08T00:34:21.747Z,15.80
2022-12-08T00:39:23.109Z,16.30
2022-12-08T00:44:24.496Z,17.75
2022-12-08T00:49:25.821Z,21.05
2022-12-08T00:54:27.145Z,24.92
2022-12-08T00:59:28.558Z,24.42
2022-12-08T01:04:29.924Z,22.67
2022-12-08T01:09:31.270Z,23.88
2022-12-08T01:14:32.608Z,20.52
2022-12-08T01:19:33.961Z,18.50
2022-12-08T01:24:35.278Z,18.58
2022-12-08T01:29:36.636Z,24.08
2022-12-08T01:34:38.006Z,23.58
2022-12-08T01:39:41.115Z,20.67
2022-12-08T01:44:42.426Z,18.33
2022-12-08T01:49:43.788Z,20.08
2022-12-08T01:54:55.952Z,25.48
2022-12-08T02:00:10.999Z,20.33
2022-12-08T02:05:13.303Z,18.20
2022-12-08T02:10:17.765Z,18.42
2022-12-08T02:15:19.199Z,19.02
2022-12-08T02:20:23.827Z,21.83
2022-12-08T02:25:31.185Z,15.63
2022-12-08T02:30:58.066Z,19.88
2022-12-08T02:36:00.998Z,19.25
2022-12-08T02:41:05.429Z,17.52
2022-12-08T02:46:09.586Z,16.08
2022-12-08T02:51:10.982Z,17.95
2022-12-08T02:56:12.231Z,14.85
2022-12-08T03:01:13.537Z,18.63
2022-12-08T03:06:17.918Z,12.65
2022-12-08T03:11:22.166Z,10.45
2022-12-08T03:16:24.955Z,13.85
2022-12-08T03:21:26.615Z,11.13
2022-12-08T03:26:35.935Z,9.77
2022-12-08T03:36:38.557Z,12.82
2022-12-08T03:41:39.868Z,16.05
2022-12-08T03:46:41.290Z,12.27
2022-12-08T03:51:42.667Z,8.88
2022-12-08T03:56:43.996Z,10.18
2022-12-08T04:01:45.389Z,11.15
2022-12-08T04:06:47.125Z,10.27
2022-12-08T04:11:49.049Z,16.15
2022-12-08T04:16:50.332Z,8.68
2022-12-08T04:21:51.617Z,7.20
2022-12-08T04:26:52.909Z,12.63
2022-12-08T04:31:54.268Z,9.48
2022-12-08T04:36:55.596Z,10.63
2022-12-08T04:41:56.938Z,10.45
2022-12-08T04:46:58.310Z,10.85
2022-12-08T04:51:59.718Z,17.15
2022-12-08T04:57:00.988Z,14.85
2022-12-08T05:02:02.517Z,17.58
2022-12-08T05:07:03.913Z,25.45
2022-12-08T05:12:05.274Z,23.85
2022-12-08T05:17:09.731Z,19.85
2022-12-08T05:22:11.462Z,20.67
2022-12-08T05:27:12.749Z,24.45
2022-12-08T05:32:14.087Z,21.85
2022-12-08T05:37:15.408Z,22.58
2022-12-08T05:42:21.720Z,24.85
2022-12-08T05:47:26.316Z,19.33
2022-12-08T05:52:27.644Z,16.45
2022-12-08T05:57:28.920Z,25.83
2022-12-08T06:02:30.429Z,18.63
2022-12-08T06:07:31.776Z,17.63
2022-12-08T06:12:33.084Z,15.18
2022-12-08T06:17:34.402Z,20.98
2022-12-08T06:22:35.862Z,16.67
2022-12-08T06:27:37.257Z,24.75
2022-12-08T06:32:38.599Z,19.95
2022-12-08T06:37:39.885Z,18.67
2022-12-08T06:42:43.548Z,18.90
2022-12-08T06:47:44.862Z,20.17
2022-12-08T06:52:55.934Z,18.27
2022-12-08T06:57:59.712Z,19.95
2022-12-08T07:03:01.078Z,24.58
2022-12-08T07:08:02.539Z,17.75
2022-12-08T07:13:04.029Z,17.60
2022-12-08T07:18:05.377Z,17.92
2022-12-08T07:23:06.662Z,18.05
2022-12-08T07:28:08.822Z,15.52
2022-12-08T07:33:10.104Z,19.45
2022-12-08T07:38:11.948Z,15.50
2022-12-08T07:43:13.274Z,18.13
2022-12-08T07:48:14.578Z,19.00
2022-12-08T07:53:15.886Z,21.52
2022-12-08T07:58:17.250Z,25.13
2022-12-08T08:03:18.621Z,24.25
2022-12-08T08:08:20.140Z,21.67
2022-12-08T08:13:21.464Z,25.40
2022-12-08T08:18:22.739Z,27.52
2022-12-08T08:23:24.065Z,24.52
2022-12-08T08:28:25.341Z,24.40
2022-12-08T08:33:27.642Z,23.42
2022-12-08T08:38:29.169Z,27.75
2022-12-08T08:43:37.621Z,19.67
2022-12-08T08:48:39.641Z,21.58
2022-12-08T08:53:41.172Z,17.77
2022-12-08T08:58:42.472Z,21.08
2022-12-08T09:03:44.085Z,19.48
2022-12-08T09:08:45.690Z,30.67
2022-12-08T09:13:47.614Z,20.05
2022-12-08T09:18:49.468Z,22.23
2022-12-08T09:23:51.506Z,19.85
2022-12-08T09:28:53.886Z,23.67
2022-12-08T09:33:55.221Z,17.10
2022-12-08T09:38:56.556Z,14.25
2022-12-08T09:44:06.299Z,13.80
2022-12-08T09:49:11.769Z,15.60
2022-12-08T09:54:18.773Z,17.63
2022-12-08T09:59:26.618Z,20.38
2022-12-08T10:04:33.469Z,20.65
2022-12-08T10:09:38.554Z,19.65
2022-12-08T10:14:44.274Z,22.20
2022-12-08T10:19:46.921Z,16.95
2022-12-08T10:24:52.837Z,23.05
2022-12-08T10:29:54.167Z,27.00
2022-12-08T10:35:12.110Z,15.93
2022-12-08T10:40:16.498Z,14.93
2022-12-08T10:45:17.794Z,21.95
2022-12-08T10:50:19.297Z,13.18
2022-12-08T10:55:21.054Z,20.73
2022-12-08T11:00:26.593Z,15.88
2022-12-08T11:05:29.354Z,21.67
2022-12-08T11:10:35.923Z,16.65
2022-12-08T11:15:38.809Z,22.05
2022-12-08T11:20:41.702Z,14.77
2022-12-08T11:25:44.195Z,12.77
2022-12-08T11:30:48.373Z,16.27
2022-12-08T11:35:56.525Z,19.05
2022-12-08T11:41:01.059Z,12.80
2022-12-08T11:46:17.475Z,13.65
2022-12-08T11:51:25.302Z,13.27
2022-12-08T11:56:29.588Z,12.80
2022-12-08T12:01:30.882Z,12.48
2022-12-08T12:06:55.814Z,8.80
2022-12-08T12:12:19.158Z,14.85
2022-12-08T12:17:39.075Z,12.98
2022-12-08T12:22:41.016Z,8.13
2022-12-08T12:27:44.247Z,6.40
2022-12-08T12:32:47.920Z,15.60
2022-12-08T12:37:49.364Z,11.65
2022-12-08T12:42:56.555Z,7.88
2022-12-08T12:47:58.784Z,10.50
2022-12-08T12:53:02.652Z,8.60
2022-12-08T12:58:19.006Z,11.52
2022-12-08T13:03:20.332Z,9.77
2022-12-08T13:08:24.098Z,7.40
2022-12-08T13:13:25.552Z,14.18
2022-12-08T13:18:32.046Z,9.75
2022-12-08T13:23:36.150Z,13.38
2022-12-08T13:28:57.411Z,12.50
2022-12-08T13:33:58.843Z,9.05
2022-12-08T13:39:01.470Z,8.02
2022-12-08T13:44:57.195Z,10.32
2022-12-08T14:00:19.851Z,13.10
2022-12-08T14:05:40.667Z,7.18
2022-12-08T14:10:44.311Z,10.30
2022-12-08T14:15:45.684Z,10.77
2022-12-08T14:21:20.325Z,6.93
2022-12-08T14:26:19.932Z,9.23
2022-12-08T14:31:22.411Z,13.18
2022-12-08T14:36:23.924Z,13.02
2022-12-08T14:41:26.987Z,7.03
2022-12-08T14:46:28.575Z,12.35
2022-12-08T14:51:31.430Z,22.83
2022-12-08T14:56:40.163Z,9.00
2022-12-08T15:01:42.679Z,13.95
2022-12-08T15:06:53.530Z,13.77
2022-12-08T15:12:02.205Z,10.63
2022-12-08T15:17:03.934Z,9.53
2022-12-08T15:22:13.759Z,9.75
2022-12-08T15:27:17.886Z,12.73
2022-12-08T15:32:22.771Z,9.23
2022-12-08T15:37:25.151Z,8.70
2022-12-08T15:42:26.542Z,9.27
2022-12-08T15:47:28.166Z,11.68
2022-12-08T15:52:29.524Z,12.00
2022-12-08T16:03:22.381Z,9.20
2022-12-08T16:08:45.901Z,11.10
2022-12-08T16:14:19.890Z,15.25
2022-12-08T16:19:13.646Z,9.98
2022-12-08T16:24:15.006Z,17.33
2022-12-08T16:29:20.644Z,8.98
2022-12-08T16:34:21.961Z,14.60
2022-12-08T16:39:23.312Z,9.25
2022-12-08T16:44:24.658Z,9.07
2022-12-08T16:49:25.954Z,14.68
2022-12-08T16:54:28.773Z,11.65
2022-12-08T16:59:34.454Z,8.25
2022-12-08T17:04:35.796Z,8.82
2022-12-08T17:09:37.169Z,9.68
2022-12-08T17:14:38.537Z,12.52
2022-12-08T17:19:40.037Z,11.60
2022-12-08T17:24:41.357Z,12.27
2022-12-08T17:29:42.665Z,12.10
2022-12-08T17:34:44.172Z,11.57
2022-12-08T17:39:45.607Z,14.45
2022-12-08T17:44:47.011Z,13.38
2022-12-08T17:49:48.438Z,9.82
2022-12-08T17:54:49.744Z,10.05
2022-12-08T17:59:51.026Z,11.75
2022-12-08T18:04:52.310Z,15.18
2022-12-08T18:09:53.684Z,15.75
2022-12-08T18:14:55.115Z,11.40
2022-12-08T18:19:56.407Z,9.32
2022-12-08T18:24:57.781Z,11.43
2022-12-08T18:30:00.365Z,14.50
2022-12-08T18:35:01.889Z,11.63
2022-12-08T18:40:03.896Z,11.88
2022-12-08T18:45:08.767Z,10.90
2022-12-08T18:50:11.068Z,11.10
2022-12-08T18:55:12.428Z,8.57
2022-12-08T19:00:15.245Z,14.80
2022-12-08T19:05:16.693Z,7.93
2022-12-08T19:10:18.064Z,10.10
2022-12-08T19:15:19.745Z,9.30
2022-12-08T19:20:21.099Z,12.13
2022-12-08T19:25:22.510Z,14.50
2022-12-08T19:30:24.125Z,9.60
2022-12-08T19:35:25.428Z,8.52
2022-12-08T19:40:45.280Z,14.52
2022-12-08T19:45:46.758Z,17.08
2022-12-08T19:50:48.152Z,11.43
2022-12-08T19:55:49.461Z,9.57
2022-12-08T20:00:50.930Z,9.20
2022-12-08T20:05:55.334Z,11.93
2022-12-08T20:10:58.962Z,13.90
2022-12-08T20:16:00.294Z,11.35
2022-12-08T20:21:01.656Z,10.68
2022-12-08T20:26:06.782Z,11.55
2022-12-08T20:31:08.380Z,9.45
2022-12-08T20:36:13.255Z,10.00
2022-12-08T20:41:17.868Z,10.52
2022-12-08T20:46:19.800Z,13.85
2022-12-08T20:51:22.332Z,12.98
2022-12-08T20:56:25.390Z,14.32
2022-12-08T21:01:26.968Z,11.38
2022-12-08T21:06:28.801Z,12.82
2022-12-08T21:11:30.347Z,11.82
2022-12-08T21:16:31.848Z,9.55
2022-12-08T21:21:33.839Z,10.30
2022-12-08T21:26:35.201Z,11.10
2022-12-08T21:31:36.706Z,11.63
2022-12-08T21:36:38.169Z,13.02
2022-12-08T21:41:58.059Z,17.58
2022-12-08T21:46:59.796Z,13.57
2022-12-08T21:52:01.262Z,13.10
2022-12-08T21:57:02.716Z,14.27
2022-12-08T22:02:04.431Z,13.73
2022-12-08T22:07:09.172Z,10.68
2022-12-08T22:12:13.563Z,16.42
2022-12-08T22:17:15.087Z,14.25
2022-12-08T22:22:16.567Z,20.25
2022-12-08T22:27:18.043Z,17.98
2022-12-08T22:32:19.447Z,14.02
2022-12-08T22:37:21.146Z,15.05
2022-12-08T22:42:22.518Z,12.18
2022-12-08T22:47:23.978Z,13.13
2022-12-08T22:52:25.425Z,12.18
2022-12-08T22:57:27.897Z,13.52
2022-12-08T23:02:29.350Z,13.52
2022-12-08T23:07:30.746Z,14.57
2022-12-08T23:12:32.393Z,15.23
2022-12-08T23:17:33.905Z,24.13
2022-12-08T23:22:35.323Z,13.27
2022-12-08T23:27:37.298Z,15.13
2022-12-08T23:32:38.809Z,12.57
2022-12-08T23:37:40.370Z,16.75
2022-12-08T23:42:41.689Z,15.00
2022-12-08T23:47:43.021Z,16.77
2022-12-08T23:52:44.418Z,16.33
2022-12-08T23:57:45.907Z,18.48
